sensor_id;sensor_type;location;lat;lon;timestamp;pressure;altitude;pressure_sealevel;temperature;humidity
4012;BME280;2020;48.682;9.024;2024-01-30T00:01:36;97721.16;;;1.79;83.05
4012;BME280;2020;48.682;9.024;2024-01-30T00:04:02;97724.22;;;1.87;82.43
4012;BME280;2020;48.682;9.024;2024-01-30T00:06:27;97726.91;;;1.84;82.67
4012;BME280;2020;48.682;9.024;2024-01-30T00:08:52;97730.63;;;1.78;83.46
4012;BME280;2020;48.682;9.024;2024-01-30T00:11:18;97721.31;;;1.75;83.92
4012;BME280;2020;48.682;9.024;2024-01-30T00:13:43;97719.66;;;1.55;85.86
4012;BME280;2020;48.682;9.024;2024-01-30T00:16:20;97730.94;;;1.70;84.93
4012;BME280;2020;48.682;9.024;2024-01-30T00:18:45;97728.25;;;1.73;84.34
4012;BME280;2020;48.682;9.024;2024-01-30T00:21:11;97723.25;;;1.70;84.71
4012;BME280;2020;48.682;9.024;2024-01-30T00:23:36;97723.09;;;1.73;84.81
4012;BME280;2020;48.682;9.024;2024-01-30T00:26:01;97724.34;;;1.84;84.61
4012;BME280;2020;48.682;9.024;2024-01-30T00:28:27;97724.22;;;1.87;84.07
4012;BME280;2020;48.682;9.024;2024-01-30T00:30:52;97717.97;;;1.93;84.19
4012;BME280;2020;48.682;9.024;2024-01-30T00:33:17;97716.72;;;2.01;83.40
4012;BME280;2020;48.682;9.024;2024-01-30T00:35:43;97725.06;;;2.07;83.52
4012;BME280;2020;48.682;9.024;2024-01-30T00:38:08;97715.53;;;2.09;83.75
4012;BME280;2020;48.682;9.024;2024-01-30T00:40:33;97723.09;;;2.12;83.29
4012;BME280;2020;48.682;9.024;2024-01-30T00:42:58;97723.25;;;2.09;84.38
4012;BME280;2020;48.682;9.024;2024-01-30T00:45:24;97728.03;;;1.97;83.67
4012;BME280;2020;48.682;9.024;2024-01-30T00:47:49;97726.25;;;1.99;84.18
4012;BME280;2020;48.682;9.024;2024-01-30T00:50:14;97718.78;;;1.93;84.75
4012;BME280;2020;48.682;9.024;2024-01-30T00:52:40;97725.88;;;1.88;84.49
4012;BME280;2020;48.682;9.024;2024-01-30T00:55:06;97723.78;;;1.96;83.83
4012;BME280;2020;48.682;9.024;2024-01-30T00:57:31;97722.25;;;1.92;84.40
4012;BME280;2020;48.682;9.024;2024-01-30T00:59:57;97721.97;;;1.98;83.22
4012;BME280;2020;48.682;9.024;2024-01-30T01:02:22;97720.47;;;1.94;82.73
4012;BME280;2020;48.682;9.024;2024-01-30T01:04:47;97729.22;;;1.90;82.96
4012;BME280;2020;48.682;9.024;2024-01-30T01:07:13;97728.44;;;1.88;83.32
4012;BME280;2020;48.682;9.024;2024-01-30T01:09:38;97720.88;;;1.85;84.15
4012;BME280;2020;48.682;9.024;2024-01-30T01:12:04;97720.06;;;1.84;83.84
4012;BME280;2020;48.682;9.024;2024-01-30T01:14:30;97725.03;;;1.68;84.53
4012;BME280;2020;48.682;9.024;2024-01-30T01:16:55;97730.94;;;1.70;84.76
4012;BME280;2020;48.682;9.024;2024-01-30T01:19:21;97723.66;;;1.61;84.94
4012;BME280;2020;48.682;9.024;2024-01-30T01:21:46;97725.47;;;1.59;84.67
4012;BME280;2020;48.682;9.024;2024-01-30T01:24:12;97730.44;;;1.62;85.06
4012;BME280;2020;48.682;9.024;2024-01-30T01:26:37;97732.53;;;1.54;85.88
4012;BME280;2020;48.682;9.024;2024-01-30T01:29:02;97724.41;;;1.63;85.01
4012;BME280;2020;48.682;9.024;2024-01-30T01:31:34;97724.56;;;1.60;84.72
4012;BME280;2020;48.682;9.024;2024-01-30T01:34:00;97723.38;;;1.67;83.90
4012;BME280;2020;48.682;9.024;2024-01-30T01:36:25;97730.44;;;1.62;84.68
4012;BME280;2020;48.682;9.024;2024-01-30T01:38:50;97727.97;;;1.60;85.11
4012;BME280;2020;48.682;9.024;2024-01-30T01:41:15;97726.22;;;1.61;84.45
4012;BME280;2020;48.682;9.024;2024-01-30T01:43:41;97723.94;;;1.55;85.00
4012;BME280;2020;48.682;9.024;2024-01-30T01:46:06;97723.38;;;1.67;84.09
4012;BME280;2020;48.682;9.024;2024-01-30T01:48:33;97722.00;;;1.60;84.89
4012;BME280;2020;48.682;9.024;2024-01-30T01:50:59;97720.59;;;1.53;84.42
4012;BME280;2020;48.682;9.024;2024-01-30T01:53:24;97724.91;;;1.52;84.71
4012;BME280;2020;48.682;9.024;2024-01-30T01:55:50;97716.44;;;1.50;85.08
4012;BME280;2020;48.682;9.024;2024-01-30T01:58:19;97722.13;;;1.57;84.74
4012;BME280;2020;48.682;9.024;2024-01-30T02:00:45;97724.41;;;1.44;84.50
4012;BME280;2020;48.682;9.024;2024-01-30T02:03:11;97721.13;;;1.40;84.83
4012;BME280;2020;48.682;9.024;2024-01-30T02:05:39;97721.81;;;1.25;86.09
4012;BME280;2020;48.682;9.024;2024-01-30T02:08:06;97722.31;;;1.33;86.14
4012;BME280;2020;48.682;9.024;2024-01-30T02:10:32;97726.69;;;1.31;85.59
4012;BME280;2020;48.682;9.024;2024-01-30T02:12:57;97717.22;;;1.31;85.57
4012;BME280;2020;48.682;9.024;2024-01-30T02:15:22;97717.13;;;1.35;85.34
4012;BME280;2020;48.682;9.024;2024-01-30T02:17:47;97718.44;;;1.43;85.05
4012;BME280;2020;48.682;9.024;2024-01-30T02:20:13;97724.88;;;1.33;86.68
4012;BME280;2020;48.682;9.024;2024-01-30T02:22:39;97720.78;;;1.29;86.23
4012;BME280;2020;48.682;9.024;2024-01-30T02:25:05;97718.88;;;1.13;86.54
4012;BME280;2020;48.682;9.024;2024-01-30T02:27:31;97722.00;;;0.99;87.69
4012;BME280;2020;48.682;9.024;2024-01-30T02:29:56;97724.41;;;1.04;87.22
4012;BME280;2020;48.682;9.024;2024-01-30T02:32:21;97722.09;;;0.98;87.40
4012;BME280;2020;48.682;9.024;2024-01-30T02:34:46;97731.31;;;1.02;86.82
4012;BME280;2020;48.682;9.024;2024-01-30T02:37:12;97729.25;;;1.10;87.05
4012;BME280;2020;48.682;9.024;2024-01-30T02:39:37;97722.47;;;1.09;86.78
4012;BME280;2020;48.682;9.024;2024-01-30T02:42:02;97726.69;;;1.10;86.47
4012;BME280;2020;48.682;9.024;2024-01-30T02:44:28;97722.47;;;1.09;86.34
4012;BME280;2020;48.682;9.024;2024-01-30T02:46:53;97721.88;;;1.02;86.22
4012;BME280;2020;48.682;9.024;2024-01-30T02:49:19;97715.81;;;1.05;86.69
4012;BME280;2020;48.682;9.024;2024-01-30T02:51:44;97717.00;;;0.96;87.08
4012;BME280;2020;48.682;9.024;2024-01-30T02:54:10;97719.66;;;0.95;86.39
4012;BME280;2020;48.682;9.024;2024-01-30T02:56:35;97721.72;;;0.86;86.57
4012;BME280;2020;48.682;9.024;2024-01-30T02:59:00;97719.91;;;0.89;86.14
4012;BME280;2020;48.682;9.024;2024-01-30T03:01:25;97725.16;;;0.85;86.07
4012;BME280;2020;48.682;9.024;2024-01-30T03:03:51;97722.22;;;0.74;87.01
4012;BME280;2020;48.682;9.024;2024-01-30T03:06:16;97720.69;;;0.70;87.70
4012;BME280;2020;48.682;9.024;2024-01-30T03:08:42;97712.69;;;0.55;88.01
4012;BME280;2020;48.682;9.024;2024-01-30T03:11:08;97719.13;;;0.66;88.01
4012;BME280;2020;48.682;9.024;2024-01-30T03:13:33;97717.91;;;0.75;86.95
4012;BME280;2020;48.682;9.024;2024-01-30T03:15:58;97721.13;;;0.80;87.92
4012;BME280;2020;48.682;9.024;2024-01-30T03:18:23;97723.63;;;0.81;87.26
4012;BME280;2020;48.682;9.024;2024-01-30T03:20:48;97718.38;;;0.84;86.08
4012;BME280;2020;48.682;9.024;2024-01-30T03:23:14;97726.13;;;0.83;86.13
4012;BME280;2020;48.682;9.024;2024-01-30T03:25:39;97716.84;;;0.80;86.02
4012;BME280;2020;48.682;9.024;2024-01-30T03:28:04;97725.56;;;0.76;86.59
4012;BME280;2020;48.682;9.024;2024-01-30T03:30:30;97725.94;;;0.67;87.42
4012;BME280;2020;48.682;9.024;2024-01-30T03:32:55;97721.66;;;0.45;88.30
4012;BME280;2020;48.682;9.024;2024-01-30T03:35:20;97721.66;;;0.45;88.76
4012;BME280;2020;48.682;9.024;2024-01-30T03:37:45;97724.84;;;0.50;88.01
4012;BME280;2020;48.682;9.024;2024-01-30T03:40:11;97721.53;;;0.48;88.38
4012;BME280;2020;48.682;9.024;2024-01-30T03:42:36;97723.97;;;0.51;88.25
4012;BME280;2020;48.682;9.024;2024-01-30T03:45:02;97722.16;;;0.53;87.65
4012;BME280;2020;48.682;9.024;2024-01-30T03:47:27;97719.50;;;0.56;87.00
4012;BME280;2020;48.682;9.024;2024-01-30T03:49:52;97716.34;;;0.50;88.08
4012;BME280;2020;48.682;9.024;2024-01-30T03:52:18;97712.69;;;0.55;87.38
4012;BME280;2020;48.682;9.024;2024-01-30T03:54:43;97713.91;;;0.47;87.78
4012;BME280;2020;48.682;9.024;2024-01-30T03:57:08;97721.28;;;0.54;87.31
4012;BME280;2020;48.682;9.024;2024-01-30T03:59:33;97711.41;;;0.45;88.15
4012;BME280;2020;48.682;9.024;2024-01-30T04:01:59;97723.44;;;0.43;87.88
4012;BME280;2020;48.682;9.024;2024-01-30T04:04:25;97718.69;;;0.34;87.62
4012;BME280;2020;48.682;9.024;2024-01-30T04:06:50;97722.75;;;0.39;87.53
4012;BME280;2020;48.682;9.024;2024-01-30T04:09:15;97725.91;;;0.24;87.39
4012;BME280;2020;48.682;9.024;2024-01-30T04:11:41;97721.47;;;0.27;87.68
4012;BME280;2020;48.682;9.024;2024-01-30T04:14:07;97717.13;;;0.29;88.00
4012;BME280;2020;48.682;9.024;2024-01-30T04:16:32;97715.84;;;0.19;89.44
4012;BME280;2020;48.682;9.024;2024-01-30T04:18:58;97710.47;;;0.25;89.10
4012;BME280;2020;48.682;9.024;2024-01-30T04:21:23;97713.56;;;0.34;88.38
4012;BME280;2020;48.682;9.024;2024-01-30T04:23:48;97715.94;;;0.38;88.16
4012;BME280;2020;48.682;9.024;2024-01-30T04:26:14;97715.19;;;0.36;88.39
4012;BME280;2020;48.682;9.024;2024-01-30T04:28:44;97712.13;;;0.26;88.38
4012;BME280;2020;48.682;9.024;2024-01-30T04:31:09;97710.22;;;0.32;88.48
4012;BME280;2020;48.682;9.024;2024-01-30T04:33:35;97715.94;;;0.16;89.49
4012;BME280;2020;48.682;9.024;2024-01-30T04:36:00;97712.50;;;0.17;88.67
4012;BME280;2020;48.682;9.024;2024-01-30T04:38:25;97719.41;;;0.15;88.96
4012;BME280;2020;48.682;9.024;2024-01-30T04:40:51;97713.16;;;0.22;88.27
4012;BME280;2020;48.682;9.024;2024-01-30T04:43:16;97716.19;;;0.32;87.46
4012;BME280;2020;48.682;9.024;2024-01-30T04:45:41;97718.94;;;0.27;88.22
4012;BME280;2020;48.682;9.024;2024-01-30T04:48:07;97724.28;;;0.21;88.74
4012;BME280;2020;48.682;9.024;2024-01-30T04:50:32;97717.56;;;0.19;89.03
4012;BME280;2020;48.682;9.024;2024-01-30T04:52:58;97716.66;;;-0.03;89.96
4012;BME280;2020;48.682;9.024;2024-01-30T04:55:23;97725.22;;;-0.04;90.25
4012;BME280;2020;48.682;9.024;2024-01-30T04:57:48;97720.81;;;-0.22;91.23
4012;BME280;2020;48.682;9.024;2024-01-30T05:00:13;97726.59;;;-0.17;92.22
4012;BME280;2020;48.682;9.024;2024-01-30T05:02:39;97729.97;;;-0.17;91.64
4012;BME280;2020;48.682;9.024;2024-01-30T05:05:04;97729.16;;;-0.17;91.55
4012;BME280;2020;48.682;9.024;2024-01-30T05:07:30;97728.91;;;-0.11;90.88
4012;BME280;2020;48.682;9.024;2024-01-30T05:09:55;97728.69;;;-0.05;90.17
4012;BME280;2020;48.682;9.024;2024-01-30T05:12:20;97726.13;;;-0.05;90.00
4012;BME280;2020;48.682;9.024;2024-01-30T05:14:46;97729.81;;;-0.12;90.48
4012;BME280;2020;48.682;9.024;2024-01-30T05:17:11;97722.13;;;-0.12;91.05
4012;BME280;2020;48.682;9.024;2024-01-30T05:19:37;97729.03;;;-0.14;90.77
4012;BME280;2020;48.682;9.024;2024-01-30T05:22:03;97722.72;;;-0.27;91.08
4012;BME280;2020;48.682;9.024;2024-01-30T05:24:28;97727.72;;;-0.24;90.82
4012;BME280;2020;48.682;9.024;2024-01-30T05:26:53;97725.94;;;-0.22;91.40
4012;BME280;2020;48.682;9.024;2024-01-30T05:29:19;97720.47;;;-0.13;90.68
4012;BME280;2020;48.682;9.024;2024-01-30T05:31:44;97727.47;;;-0.18;90.06
4012;BME280;2020;48.682;9.024;2024-01-30T05:34:09;97727.59;;;-0.21;90.66
4012;BME280;2020;48.682;9.024;2024-01-30T05:36:35;97731.63;;;-0.16;90.52
4012;BME280;2020;48.682;9.024;2024-01-30T05:39:00;97729.38;;;-0.23;91.34
4012;BME280;2020;48.682;9.024;2024-01-30T05:41:26;97734.38;;;-0.20;91.17
4012;BME280;2020;48.682;9.024;2024-01-30T05:43:51;97734.63;;;-0.26;91.01
4012;BME280;2020;48.682;9.024;2024-01-30T05:46:16;97734.44;;;-0.22;90.99
4012;BME280;2020;48.682;9.024;2024-01-30T05:48:42;97746.41;;;-0.22;91.42
4012;BME280;2020;48.682;9.024;2024-01-30T05:51:07;97736.28;;;-0.25;91.24
4012;BME280;2020;48.682;9.024;2024-01-30T05:53:33;97734.63;;;-0.26;91.27
4012;BME280;2020;48.682;9.024;2024-01-30T05:56:01;97739.72;;;-0.26;91.19
4012;BME280;2020;48.682;9.024;2024-01-30T05:58:26;97744.63;;;-0.20;90.32
4012;BME280;2020;48.682;9.024;2024-01-30T06:00:51;97748.19;;;-0.24;90.30
4012;BME280;2020;48.682;9.024;2024-01-30T06:03:17;97741.94;;;-0.17;90.67
4012;BME280;2020;48.682;9.024;2024-01-30T06:05:42;97747.84;;;-0.15;89.96
4012;BME280;2020;48.682;9.024;2024-01-30T06:08:07;97746.19;;;-0.16;89.69
4012;BME280;2020;48.682;9.024;2024-01-30T06:10:32;97751.41;;;-0.19;90.32
4012;BME280;2020;48.682;9.024;2024-01-30T06:12:58;97744.75;;;-0.23;90.58
4012;BME280;2020;48.682;9.024;2024-01-30T06:15:23;97746.63;;;-0.28;90.74
4012;BME280;2020;48.682;9.024;2024-01-30T06:17:48;97748.97;;;-0.46;91.33
4012;BME280;2020;48.682;9.024;2024-01-30T06:20:13;97746.56;;;-0.51;92.07
4012;BME280;2020;48.682;9.024;2024-01-30T06:22:39;97749.06;;;-0.49;91.53
4012;BME280;2020;48.682;9.024;2024-01-30T06:25:04;97750.00;;;-0.52;91.57
4012;BME280;2020;48.682;9.024;2024-01-30T06:27:29;97758.34;;;-0.47;91.24
4012;BME280;2020;48.682;9.024;2024-01-30T06:29:55;97749.53;;;-0.38;90.93
4012;BME280;2020;48.682;9.024;2024-01-30T06:32:20;97753.56;;;-0.32;90.87
4012;BME280;2020;48.682;9.024;2024-01-30T06:34:45;97747.31;;;-0.47;91.28
4012;BME280;2020;48.682;9.024;2024-01-30T06:37:10;97748.41;;;-0.54;92.03
4012;BME280;2020;48.682;9.024;2024-01-30T06:39:36;97745.75;;;-0.51;92.12
4012;BME280;2020;48.682;9.024;2024-01-30T06:42:01;97745.63;;;-0.48;91.71
4012;BME280;2020;48.682;9.024;2024-01-30T06:44:26;97743.84;;;-0.46;91.51
4012;BME280;2020;48.682;9.024;2024-01-30T06:46:52;97753.31;;;-0.48;90.92
4012;BME280;2020;48.682;9.024;2024-01-30T06:49:17;97745.53;;;-0.45;91.57
4012;BME280;2020;48.682;9.024;2024-01-30T06:51:43;97752.19;;;-0.41;91.24
4012;BME280;2020;48.682;9.024;2024-01-30T06:54:08;97748.75;;;-0.40;91.69
4012;BME280;2020;48.682;9.024;2024-01-30T06:56:33;97749.56;;;-0.39;91.93
4012;BME280;2020;48.682;9.024;2024-01-30T06:58:59;97750.97;;;-0.31;91.40
4012;BME280;2020;48.682;9.024;2024-01-30T07:01:28;97749.34;;;-0.33;91.38
4012;BME280;2020;48.682;9.024;2024-01-30T07:03:54;97753.47;;;-0.29;91.32
4012;BME280;2020;48.682;9.024;2024-01-30T07:06:20;97753.63;;;-0.34;90.48
4012;BME280;2020;48.682;9.024;2024-01-30T07:08:45;97754.56;;;-0.36;90.84
4012;BME280;2020;48.682;9.024;2024-01-30T07:11:10;97762.22;;;-0.35;91.24
4012;BME280;2020;48.682;9.024;2024-01-30T07:13:37;97770.66;;;-0.33;90.94
4012;BME280;2020;48.682;9.024;2024-01-30T07:16:03;97770.88;;;-0.39;91.23
4012;BME280;2020;48.682;9.024;2024-01-30T07:18:28;97776.81;;;-0.38;91.58
4012;BME280;2020;48.682;9.024;2024-01-30T07:20:53;97770.88;;;-0.39;91.79
4012;BME280;2020;48.682;9.024;2024-01-30T07:23:18;97769.44;;;-0.46;92.90
4012;BME280;2020;48.682;9.024;2024-01-30T07:25:44;97763.88;;;-0.34;92.97
4012;BME280;2020;48.682;9.024;2024-01-30T07:28:10;97764.88;;;-0.14;91.67
4012;BME280;2020;48.682;9.024;2024-01-30T07:30:36;97764.25;;;0.03;91.07
4012;BME280;2020;48.682;9.024;2024-01-30T07:33:01;97761.94;;;0.19;90.29
4012;BME280;2020;48.682;9.024;2024-01-30T07:35:27;97763.47;;;0.23;89.66
4012;BME280;2020;48.682;9.024;2024-01-30T07:37:52;97765.16;;;0.24;89.14
4012;BME280;2020;48.682;9.024;2024-01-30T07:40:17;97763.66;;;0.19;90.30
4012;BME280;2020;48.682;9.024;2024-01-30T07:42:42;97763.34;;;0.26;90.51
4012;BME280;2020;48.682;9.024;2024-01-30T07:45:08;97769.56;;;0.43;90.34
4012;BME280;2020;48.682;9.024;2024-01-30T07:47:34;97770.84;;;0.53;90.05
4012;BME280;2020;48.682;9.024;2024-01-30T07:49:59;97769.66;;;0.62;89.98
4012;BME280;2020;48.682;9.024;2024-01-30T07:52:24;97765.38;;;0.63;90.24
4012;BME280;2020;48.682;9.024;2024-01-30T07:54:50;97767.03;;;0.64;89.86
4012;BME280;2020;48.682;9.024;2024-01-30T07:57:16;97769.66;;;0.62;90.39
4012;BME280;2020;48.682;9.024;2024-01-30T07:59:42;97770.16;;;0.72;91.37
4012;BME280;2020;48.682;9.024;2024-01-30T08:02:09;97773.88;;;0.85;90.11
4012;BME280;2020;48.682;9.024;2024-01-30T08:04:34;97781.31;;;0.92;89.96
4012;BME280;2020;48.682;9.024;2024-01-30T08:06:59;97771.63;;;0.98;89.59
4012;BME280;2020;48.682;9.024;2024-01-30T08:09:24;97770.84;;;1.17;89.12
4012;BME280;2020;48.682;9.024;2024-01-30T08:11:50;97765.66;;;1.39;88.52
4012;BME280;2020;48.682;9.024;2024-01-30T08:14:15;97773.19;;;1.63;89.15
4012;BME280;2020;48.682;9.024;2024-01-30T08:16:40;97770.03;;;1.77;86.50
4012;BME280;2020;48.682;9.024;2024-01-30T08:19:05;97771.28;;;2.07;86.98
4012;BME280;2020;48.682;9.024;2024-01-30T08:21:31;97764.44;;;2.25;85.84
4012;BME280;2020;48.682;9.024;2024-01-30T08:24:01;97771.53;;;2.39;84.20
4012;BME280;2020;48.682;9.024;2024-01-30T08:26:26;97763.69;;;2.59;83.77
4012;BME280;2020;48.682;9.024;2024-01-30T08:28:51;97763.56;;;2.80;83.86
4012;BME280;2020;48.682;9.024;2024-01-30T08:31:18;97757.31;;;3.03;84.23
4012;BME280;2020;48.682;9.024;2024-01-30T08:33:43;97764.00;;;3.24;83.35
4012;BME280;2020;48.682;9.024;2024-01-30T08:36:09;97762.19;;;3.26;82.90
4012;BME280;2020;48.682;9.024;2024-01-30T08:38:34;97762.97;;;3.10;82.33
4012;BME280;2020;48.682;9.024;2024-01-30T08:40:59;97761.59;;;3.03;83.77
4012;BME280;2020;48.682;9.024;2024-01-30T08:43:25;97760.53;;;2.89;82.17
4012;BME280;2020;48.682;9.024;2024-01-30T08:45:50;97765.31;;;2.80;84.48
4012;BME280;2020;48.682;9.024;2024-01-30T08:48:15;97762.22;;;2.90;84.54
4012;BME280;2020;48.682;9.024;2024-01-30T08:50:40;97770.47;;;2.97;84.06
4012;BME280;2020;48.682;9.024;2024-01-30T08:53:06;97765.63;;;3.09;84.67
4012;BME280;2020;48.682;9.024;2024-01-30T08:55:31;97773.41;;;3.07;83.86
4012;BME280;2020;48.682;9.024;2024-01-30T08:57:56;97770.66;;;3.28;84.61
4012;BME280;2020;48.682;9.024;2024-01-30T09:00:22;97774.91;;;3.46;84.45
4012;BME280;2020;48.682;9.024;2024-01-30T09:02:50;97781.66;;;3.65;84.04
4012;BME280;2020;48.682;9.024;2024-01-30T09:05:15;97779.94;;;3.82;83.96
4012;BME280;2020;48.682;9.024;2024-01-30T09:07:40;97778.78;;;3.71;81.79
4012;BME280;2020;48.682;9.024;2024-01-30T09:10:06;97777.13;;;3.86;82.19
4012;BME280;2020;48.682;9.024;2024-01-30T09:12:32;97780.28;;;3.91;81.29
4012;BME280;2020;48.682;9.024;2024-01-30T09:14:57;97782.88;;;4.07;81.98
4012;BME280;2020;48.682;9.024;2024-01-30T09:17:23;97781.97;;;4.08;80.82
4012;BME280;2020;48.682;9.024;2024-01-30T09:19:48;97781.31;;;4.21;81.47
4012;BME280;2020;48.682;9.024;2024-01-30T09:22:13;97780.31;;;4.39;80.92
4012;BME280;2020;48.682;9.024;2024-01-30T09:24:40;97781.44;;;4.50;80.42
4012;BME280;2020;48.682;9.024;2024-01-30T09:27:05;97783.13;;;4.51;80.19
4012;BME280;2020;48.682;9.024;2024-01-30T09:29:31;97780.06;;;4.44;78.82
4012;BME280;2020;48.682;9.024;2024-01-30T09:31:58;97786.63;;;4.50;80.00
4012;BME280;2020;48.682;9.024;2024-01-30T09:34:23;97779.22;;;4.60;82.52
4012;BME280;2020;48.682;9.024;2024-01-30T09:36:48;97780.47;;;4.68;79.37
4012;BME280;2020;48.682;9.024;2024-01-30T09:39:13;97781.06;;;4.88;78.62
4012;BME280;2020;48.682;9.024;2024-01-30T09:41:55;97783.38;;;4.93;75.21
4012;BME280;2020;48.682;9.024;2024-01-30T09:44:25;97780.38;;;5.01;73.96
4012;BME280;2020;48.682;9.024;2024-01-30T09:46:53;97785.94;;;5.23;77.33
4012;BME280;2020;48.682;9.024;2024-01-30T09:49:20;97782.44;;;5.24;76.06
4012;BME280;2020;48.682;9.024;2024-01-30T09:51:46;97786.13;;;5.20;75.19
4012;BME280;2020;48.682;9.024;2024-01-30T09:54:14;97781.09;;;5.33;75.78
4012;BME280;2020;48.682;9.024;2024-01-30T09:56:40;97791.31;;;5.35;75.50
4012;BME280;2020;48.682;9.024;2024-01-30T09:59:05;97795.00;;;5.31;73.14
4012;BME280;2020;48.682;9.024;2024-01-30T10:01:31;97802.22;;;5.40;76.58
4012;BME280;2020;48.682;9.024;2024-01-30T10:03:56;97794.94;;;5.47;73.86
4012;BME280;2020;48.682;9.024;2024-01-30T10:06:24;97796.31;;;5.52;77.93
4012;BME280;2020;48.682;9.024;2024-01-30T10:08:49;97799.09;;;5.64;76.14
4012;BME280;2020;48.682;9.024;2024-01-30T10:11:14;97802.03;;;5.72;74.16
4012;BME280;2020;48.682;9.024;2024-01-30T10:13:40;97797.97;;;5.82;77.74
4012;BME280;2020;48.682;9.024;2024-01-30T10:16:06;97797.78;;;5.85;77.62
4012;BME280;2020;48.682;9.024;2024-01-30T10:18:32;97793.91;;;5.93;73.36
4012;BME280;2020;48.682;9.024;2024-01-30T10:20:57;97798.19;;;6.08;74.64
4012;BME280;2020;48.682;9.024;2024-01-30T10:23:23;97796.91;;;6.01;73.75
4012;BME280;2020;48.682;9.024;2024-01-30T10:25:50;97794.16;;;6.04;72.94
4012;BME280;2020;48.682;9.024;2024-01-30T10:28:16;97803.38;;;6.08;73.45
4012;BME280;2020;48.682;9.024;2024-01-30T10:30:41;97794.50;;;6.12;72.18
4012;BME280;2020;48.682;9.024;2024-01-30T10:33:06;97796.25;;;6.12;72.02
4012;BME280;2020;48.682;9.024;2024-01-30T10:35:32;97792.59;;;6.43;72.27
4012;BME280;2020;48.682;9.024;2024-01-30T10:37:58;97789.41;;;6.53;67.96
4012;BME280;2020;48.682;9.024;2024-01-30T10:40:28;97785.22;;;6.65;70.20
4012;BME280;2020;48.682;9.024;2024-01-30T10:42:54;97783.00;;;6.86;69.17
4012;BME280;2020;48.682;9.024;2024-01-30T10:45:22;97782.59;;;6.92;70.18
4012;BME280;2020;48.682;9.024;2024-01-30T10:47:53;97779.31;;;7.16;68.42
4012;BME280;2020;48.682;9.024;2024-01-30T10:50:19;97777.06;;;7.24;67.01
4012;BME280;2020;48.682;9.024;2024-01-30T10:52:46;97783.09;;;7.38;64.88
4012;BME280;2020;48.682;9.024;2024-01-30T10:55:12;97780.00;;;7.58;63.35
4012;BME280;2020;48.682;9.024;2024-01-30T10:57:38;97773.97;;;7.71;62.75
4012;BME280;2020;48.682;9.024;2024-01-30T11:00:07;97774.78;;;7.84;66.59
4012;BME280;2020;48.682;9.024;2024-01-30T11:02:43;97769.16;;;8.03;65.97
4012;BME280;2020;48.682;9.024;2024-01-30T11:05:10;97768.09;;;8.06;64.25
4012;BME280;2020;48.682;9.024;2024-01-30T11:07:36;97761.53;;;8.13;62.89
4012;BME280;2020;48.682;9.024;2024-01-30T11:10:04;97765.19;;;8.11;63.71
4012;BME280;2020;48.682;9.024;2024-01-30T11:12:31;97762.47;;;8.12;64.15
4012;BME280;2020;48.682;9.024;2024-01-30T11:15:03;97768.16;;;8.17;62.84
4012;BME280;2020;48.682;9.024;2024-01-30T11:20:19;97771.41;;;8.21;61.24
4012;BME280;2020;48.682;9.024;2024-01-30T11:22:46;97767.66;;;8.25;62.40
4012;BME280;2020;48.682;9.024;2024-01-30T11:25:13;97767.53;;;8.27;61.71
4012;BME280;2020;48.682;9.024;2024-01-30T11:27:38;97757.66;;;8.32;60.95
4012;BME280;2020;48.682;9.024;2024-01-30T11:30:04;97760.28;;;8.43;61.66
4012;BME280;2020;48.682;9.024;2024-01-30T11:32:30;97756.75;;;8.44;62.21
4012;BME280;2020;48.682;9.024;2024-01-30T11:34:55;97762.97;;;8.55;61.42
4012;BME280;2020;48.682;9.024;2024-01-30T11:37:21;97759.84;;;8.62;61.64
4012;BME280;2020;48.682;9.024;2024-01-30T11:39:50;97749.63;;;8.72;58.22
4012;BME280;2020;48.682;9.024;2024-01-30T11:42:16;97756.72;;;8.70;59.55
4012;BME280;2020;48.682;9.024;2024-01-30T11:44:46;97752.94;;;8.74;60.31
4012;BME280;2020;48.682;9.024;2024-01-30T11:47:12;97756.03;;;8.80;60.33
4012;BME280;2020;48.682;9.024;2024-01-30T11:49:37;97756.63;;;8.83;60.92
4012;BME280;2020;48.682;9.024;2024-01-30T11:52:03;97752.28;;;8.84;61.32
4012;BME280;2020;48.682;9.024;2024-01-30T11:54:29;97741.66;;;8.87;60.28
4012;BME280;2020;48.682;9.024;2024-01-30T11:56:54;97746.84;;;8.87;59.02
4012;BME280;2020;48.682;9.024;2024-01-30T11:59:19;97740.75;;;8.99;58.17
4012;BME280;2020;48.682;9.024;2024-01-30T12:01:44;97738.88;;;9.01;57.78
4012;BME280;2020;48.682;9.024;2024-01-30T12:04:10;97736.97;;;9.03;60.23
4012;BME280;2020;48.682;9.024;2024-01-30T12:06:35;97740.53;;;9.02;60.60
4012;BME280;2020;48.682;9.024;2024-01-30T12:09:02;97728.00;;;9.07;58.13
4012;BME280;2020;48.682;9.024;2024-01-30T12:11:48;97731.34;;;9.21;60.13
4012;BME280;2020;48.682;9.024;2024-01-30T12:14:14;97728.75;;;9.21;59.22
4012;BME280;2020;48.682;9.024;2024-01-30T12:16:40;97719.53;;;9.28;58.36
4012;BME280;2020;48.682;9.024;2024-01-30T12:19:06;97718.50;;;9.31;59.44
4012;BME280;2020;48.682;9.024;2024-01-30T12:21:33;97712.69;;;9.39;57.07
4012;BME280;2020;48.682;9.024;2024-01-30T12:23:59;97712.94;;;9.47;58.96
4012;BME280;2020;48.682;9.024;2024-01-30T12:26:25;97719.09;;;9.57;56.29
4012;BME280;2020;48.682;9.024;2024-01-30T12:28:54;97716.00;;;9.75;55.98
4012;BME280;2020;48.682;9.024;2024-01-30T12:31:28;97711.97;;;9.93;55.88
4012;BME280;2020;48.682;9.024;2024-01-30T12:33:53;97708.91;;;10.00;57.95
4012;BME280;2020;48.682;9.024;2024-01-30T12:36:19;97720.13;;;10.00;57.03
4012;BME280;2020;48.682;9.024;2024-01-30T12:38:45;97708.19;;;10.09;55.61
4012;BME280;2020;48.682;9.024;2024-01-30T12:41:11;97706.97;;;10.13;55.49
4012;BME280;2020;48.682;9.024;2024-01-30T12:43:36;97710.53;;;10.12;56.18
4012;BME280;2020;48.682;9.024;2024-01-30T12:46:02;97700.91;;;10.24;55.22
4012;BME280;2020;48.682;9.024;2024-01-30T12:48:28;97715.72;;;10.23;57.13
4012;BME280;2020;48.682;9.024;2024-01-30T12:50:55;97710.00;;;10.30;55.71
4012;BME280;2020;48.682;9.024;2024-01-30T12:53:20;97708.09;;;10.43;57.50
4012;BME280;2020;48.682;9.024;2024-01-30T12:55:45;97708.47;;;10.71;53.87
4012;BME280;2020;48.682;9.024;2024-01-30T12:58:11;97704.25;;;11.01;52.56
4012;BME280;2020;48.682;9.024;2024-01-30T13:00:36;97707.25;;;11.18;52.67
4012;BME280;2020;48.682;9.024;2024-01-30T13:03:01;97709.09;;;11.27;53.85
4012;BME280;2020;48.682;9.024;2024-01-30T13:05:27;97696.94;;;11.37;50.66
4012;BME280;2020;48.682;9.024;2024-01-30T13:07:52;97703.78;;;11.69;51.37
4012;BME280;2020;48.682;9.024;2024-01-30T13:10:18;97702.72;;;11.82;52.12
4012;BME280;2020;48.682;9.024;2024-01-30T13:12:44;97697.50;;;11.82;53.66
4012;BME280;2020;48.682;9.024;2024-01-30T13:15:09;97706.81;;;11.75;51.03
4012;BME280;2020;48.682;9.024;2024-01-30T13:17:36;97699.28;;;11.72;49.96
4012;BME280;2020;48.682;9.024;2024-01-30T13:20:01;97713.63;;;11.56;49.92
4012;BME280;2020;48.682;9.024;2024-01-30T13:22:28;97705.88;;;11.45;51.39
4012;BME280;2020;48.682;9.024;2024-01-30T13:24:53;97706.41;;;11.38;52.45